Boca Raton, FL (33433)

2:52 PM EDT on August 27, 2016 (GMT -0400)
Terra Tranquila | | Change Station

Elev 30 ft 26.34 °N, 80.15 °W | Updated 31 seconds ago

Scattered Clouds
Scattered Clouds
86.9 °F
Feels Like 100 °F
N
0.0
Wind Variable Wind from ESE
Gusts 5.8 mph

Today
High -- | Low -- °F
--% Chance of Precip.
Yesterday
High -- | Low -- °F
Precip. -- in
Pressure 29.93 in
Visibility 10.0 miles
Clouds Scattered Clouds 2600 ft
Heat Index 100 °F
Dew Point 78 °F
Humidity 75%
Rainfall 0.30 in
Snow Depth Not available.
6:58 AM 7:44 PM
Waning Crescent, 22% visible
METAR KPMP 271753Z 08013KT 10SM SCT026 33/25 A2992 RMK AO2 SLP133 T03280250 10328 20294 56008
Pressure 29.93 in
Visibility 10.0 miles
Clouds Scattered Clouds 2600 ft
Heat Index 100 °F
Dew Point 78 °F
Humidity 75%
Rainfall 0.30 in
Snow Depth Not available.
6:58 AM 7:44 PM
Waning Crescent, 22% visible
METAR KPMP 271753Z 08013KT 10SM SCT026 33/25 A2992 RMK AO2 SLP133 T03280250 10328 20294 56008

10-Day Weather Forecast

Almanac

Astronomy

Aug. 27, 2016 Rise Set
Actual Time
Civil Twilight
Nautical Twilight
Astronomical Twilight
Moon
Length of Visible Light
Length of Day
Tomorrow will be .
, % of the Moon is Illuminated

Today's Extremes

State Highs State Lows

Community

WunderPhotos

Upload Photos

1,935,399 photos uploaded!

WunderBlog® & News

Nearby

Air Quality

  Air Quality AQ Index Pollutant
Not available.

Snow Depth

Station Depth Elevation

Earthquake Activity

City Distance Mag. Time & Date
Minimum magnitude displayed is 2.5.

Coastal Water Temperatures

Place Temperature

Stations

Nearby Weather Stations

Station Location Temp. Windchill Dew Point Humidity Wind Precip. Elev Updated Type
                   

Watches & Warnings

There are currently no watches in effect.